CheckWX is a tool to help pilots better visualize weather data.  It is not intended as a substitute for an official pre-flight weather briefing.

22:03:49 UTC

KPOC METAR
Brackett Field Airport
La Verne, California, USA
Current

1 hour ago

KPOC 242047Z 25011KT 10SM CLR 27/11 A2991
Observed
May-24 @ 20:47 UTC
Wind
  • 250° at 11 KTS
Visibility
Flight Rules
VFR
Cloud Levels
  • Clear skies
Temperature
27°C / 81°F
Dewpoint
11°C / 52°F
Humidity
37%
Altimeter
29.91" Hg
Pressure
1012.92 hPa
Previous

2 hours ago

KPOC 241947Z 28007KT 10SM CLR 25/12 A2993
Observed
May-24 @ 19:47 UTC
Wind
  • 280° at 7 KTS
Visibility
Flight Rules
VFR
Cloud Levels
  • Clear skies
Temperature
25°C / 77°F
Dewpoint
12°C / 54°F
Humidity
44%
Altimeter
29.93" Hg
Pressure
1013.52 hPa
Previous

3 hours ago

KPOC 241847Z 26010KT 10SM CLR 22/13 A2995
Observed
May-24 @ 18:47 UTC
Wind
  • 260° at 10 KTS
Visibility
Flight Rules
VFR
Cloud Levels
  • Clear skies
Temperature
22°C / 72°F
Dewpoint
13°C / 55°F
Humidity
57%
Altimeter
29.95" Hg
Pressure
1014.22 hPa